createdAt,value
2019-03-05T00:01:40.854Z,99.90
2019-03-05T00:04:11.145Z,99.90
2019-03-05T00:06:41.278Z,99.90
2019-03-05T00:09:16.518Z,99.90
2019-03-05T00:11:46.697Z,99.90
2019-03-05T00:14:18.827Z,99.90
2019-03-05T00:16:48.755Z,99.90
2019-03-05T00:19:19.086Z,99.90
2019-03-05T00:21:49.325Z,99.90
2019-03-05T00:24:55.135Z,99.90
2019-03-05T00:27:25.354Z,99.90
2019-03-05T00:30:16.988Z,99.90
2019-03-05T00:32:49.056Z,99.90
2019-03-05T00:35:28.773Z,99.90
2019-03-05T00:38:07.446Z,99.90
2019-03-05T00:40:55.965Z,99.90
2019-03-05T00:43:40.133Z,99.90
2019-03-05T00:46:23.832Z,99.90
2019-03-05T00:49:02.405Z,99.90
2019-03-05T00:51:48.747Z,99.90
2019-03-05T00:57:05.585Z,99.90
2019-03-05T01:00:17.424Z,99.90
2019-03-05T01:02:54.349Z,99.90
2019-03-05T01:06:17.829Z,99.90
2019-03-05T01:08:48.189Z,99.90
2019-03-05T01:11:19.534Z,99.90
2019-03-05T01:13:49.754Z,99.90
2019-03-05T01:16:23.510Z,99.90
2019-03-05T01:18:53.710Z,99.90
2019-03-05T01:21:23.850Z,99.90
2019-03-05T01:23:54.276Z,99.90
2019-03-05T01:26:24.595Z,99.90
2019-03-05T01:28:54.720Z,99.90
2019-03-05T01:31:53.525Z,99.90
2019-03-05T01:34:38.184Z,99.90
2019-03-05T01:37:08.650Z,99.90
2019-03-05T01:39:57.780Z,99.90
2019-03-05T01:42:28.128Z,99.90
2019-03-05T01:44:58.344Z,99.90
2019-03-05T01:47:28.581Z,99.90
2019-03-05T01:49:58.865Z,99.90
2019-03-05T01:52:29.060Z,99.90
2019-03-05T01:54:59.406Z,99.90
2019-03-05T01:57:30.963Z,99.90
2019-03-05T02:00:02.871Z,99.90
2019-03-05T02:02:34.887Z,99.90
2019-03-05T02:05:05.714Z,99.90
2019-03-05T02:07:35.941Z,99.90
2019-03-05T02:10:12.846Z,99.90
2019-03-05T02:12:43.069Z,99.90
2019-03-05T02:15:13.432Z,99.90
2019-03-05T02:17:43.617Z,99.90
2019-03-05T02:20:17.503Z,99.90
2019-03-05T02:22:55.488Z,99.90
2019-03-05T02:26:00.472Z,99.90
2019-03-05T02:28:52.660Z,99.90
2019-03-05T02:32:17.760Z,99.90
2019-03-05T02:35:19.420Z,99.90
2019-03-05T02:38:28.489Z,99.90
2019-03-05T02:41:42.315Z,99.90
2019-03-05T02:44:49.664Z,99.90
2019-03-05T02:48:03.647Z,99.90
2019-03-05T02:51:06.465Z,99.90
2019-03-05T02:54:13.282Z,99.90
2019-03-05T02:56:59.411Z,99.90
2019-03-05T02:59:30.629Z,99.90
2019-03-05T03:02:15.719Z,99.90
2019-03-05T03:04:48.607Z,99.90
2019-03-05T03:07:18.850Z,99.90
2019-03-05T03:10:15.271Z,99.90
2019-03-05T03:12:45.765Z,99.90
2019-03-05T03:15:21.454Z,99.90
2019-03-05T03:17:52.142Z,99.90
2019-03-05T03:20:23.689Z,99.90
2019-03-05T03:22:54.153Z,99.90
2019-03-05T03:25:25.013Z,99.90
2019-03-05T03:27:55.248Z,99.90
2019-03-05T03:30:27.580Z,99.90
2019-03-05T03:32:57.950Z,99.90
2019-03-05T03:35:28.297Z,99.90
2019-03-05T03:37:58.509Z,99.90
2019-03-05T03:40:28.706Z,99.90
2019-03-05T03:42:58.954Z,99.90
2019-03-05T03:45:29.414Z,99.90
2019-03-05T03:47:59.849Z,99.90
2019-03-05T03:50:30.043Z,99.90
2019-03-05T03:53:01.058Z,99.90
2019-03-05T03:55:31.261Z,99.90
2019-03-05T03:58:01.806Z,99.90
2019-03-05T04:00:33.064Z,99.90
2019-03-05T04:03:03.182Z,99.90
2019-03-05T04:05:33.407Z,99.90
2019-03-05T04:08:10.526Z,99.90
2019-03-05T04:10:40.709Z,99.90
2019-03-05T04:13:13.202Z,99.90
2019-03-05T04:15:44.410Z,99.90
2019-03-05T04:18:16.994Z,99.90
2019-03-05T04:20:54.919Z,99.90
2019-03-05T04:23:25.262Z,99.90
2019-03-05T04:25:56.974Z,99.90
2019-03-05T04:28:28.583Z,99.90
2019-03-05T04:31:00.252Z,99.90
2019-03-05T04:33:30.536Z,99.90
2019-03-05T04:36:00.717Z,99.90
2019-03-05T04:38:30.932Z,99.90
2019-03-05T04:41:11.658Z,99.90
2019-03-05T04:43:41.754Z,99.90
2019-03-05T04:46:30.836Z,99.90
2019-03-05T04:49:21.213Z,99.90
2019-03-05T04:51:55.258Z,99.90
2019-03-05T04:54:25.508Z,99.90
2019-03-05T04:56:55.690Z,99.90
2019-03-05T04:59:25.945Z,99.90
2019-03-05T05:01:56.153Z,99.90
2019-03-05T05:04:26.376Z,99.90
2019-03-05T05:06:56.601Z,99.90
2019-03-05T05:09:26.762Z,99.90
2019-03-05T05:11:56.935Z,99.90
2019-03-05T05:14:27.165Z,99.90
2019-03-05T05:16:57.341Z,99.90
2019-03-05T05:19:27.617Z,99.90
2019-03-05T05:21:57.831Z,99.90
2019-03-05T05:24:28.005Z,99.90
2019-03-05T05:26:58.173Z,99.90
2019-03-05T05:29:28.433Z,99.90
2019-03-05T05:31:58.585Z,99.90
2019-03-05T05:34:28.654Z,99.90
2019-03-05T05:36:58.904Z,99.90
2019-03-05T05:40:04.934Z,99.90
2019-03-05T05:42:35.385Z,99.90
2019-03-05T05:45:06.953Z,99.90
2019-03-05T05:47:37.117Z,99.90
2019-03-05T05:50:07.703Z,99.90
2019-03-05T05:52:37.955Z,99.90
2019-03-05T05:55:09.685Z,99.90
2019-03-05T05:57:39.941Z,99.90
2019-03-05T06:00:12.784Z,99.90
2019-03-05T06:02:43.006Z,99.90
2019-03-05T06:05:13.220Z,99.90
2019-03-05T06:07:44.396Z,99.90
2019-03-05T06:10:14.999Z,99.90
2019-03-05T06:12:45.270Z,99.90
2019-03-05T06:15:15.632Z,99.90
2019-03-05T06:17:45.894Z,99.90
2019-03-05T06:20:18.737Z,99.90
2019-03-05T06:22:52.137Z,99.90
2019-03-05T06:25:22.477Z,99.90
2019-03-05T06:27:52.547Z,99.90
2019-03-05T06:30:22.801Z,99.90
2019-03-05T06:32:53.061Z,99.90
2019-03-05T06:35:23.264Z,99.90
2019-03-05T06:37:53.596Z,99.90
2019-03-05T06:40:23.827Z,99.90
2019-03-05T06:42:53.998Z,99.90
2019-03-05T06:45:24.180Z,99.90
2019-03-05T06:47:54.391Z,99.90
2019-03-05T06:50:24.632Z,99.90
2019-03-05T06:52:55.007Z,99.90
2019-03-05T06:55:25.190Z,99.90
2019-03-05T06:57:55.380Z,99.90
2019-03-05T07:00:30.821Z,99.90
2019-03-05T07:03:01.930Z,99.90
2019-03-05T07:06:07.993Z,99.90
2019-03-05T07:08:51.307Z,99.90
2019-03-05T07:11:59.738Z,99.90
2019-03-05T07:14:38.983Z,99.90
2019-03-05T07:17:27.202Z,99.90
2019-03-05T07:20:23.858Z,99.90
2019-03-05T07:23:26.333Z,99.90
2019-03-05T07:25:57.629Z,99.90
2019-03-05T07:28:29.761Z,99.90
2019-03-05T07:30:59.863Z,99.90
2019-03-05T07:33:30.019Z,99.90
2019-03-05T07:36:00.387Z,99.90
2019-03-05T07:38:30.654Z,99.90
2019-03-05T07:41:00.857Z,99.90
2019-03-05T07:43:36.510Z,99.90
2019-03-05T07:46:04.207Z,99.90
2019-03-05T07:48:34.416Z,99.90
2019-03-05T07:51:04.634Z,99.90
2019-03-05T07:53:34.985Z,99.90
2019-03-05T07:56:05.177Z,99.90
2019-03-05T07:58:35.512Z,99.90
2019-03-05T08:01:06.373Z,99.90
2019-03-05T08:03:37.593Z,99.90
2019-03-05T08:06:07.661Z,99.90
2019-03-05T08:09:15.967Z,99.90
2019-03-05T08:11:46.174Z,99.90
2019-03-05T08:14:57.183Z,99.90
2019-03-05T08:17:27.222Z,99.90
2019-03-05T08:19:57.465Z,99.90
2019-03-05T08:22:27.770Z,99.90
2019-03-05T08:24:57.863Z,99.90
2019-03-05T08:27:28.024Z,99.90
2019-03-05T08:29:58.245Z,99.90
2019-03-05T08:32:28.291Z,99.90
2019-03-05T08:34:58.482Z,99.90
2019-03-05T08:37:28.866Z,99.90
2019-03-05T08:39:58.907Z,99.90
2019-03-05T08:42:29.029Z,99.90
2019-03-05T08:44:59.168Z,99.90
2019-03-05T08:47:29.365Z,99.90
2019-03-05T08:49:59.604Z,99.90
2019-03-05T08:52:29.797Z,99.90
2019-03-05T08:55:00.004Z,99.90
2019-03-05T08:57:30.246Z,99.90
2019-03-05T09:00:00.550Z,99.90
2019-03-05T09:02:30.644Z,99.90
2019-03-05T09:05:00.984Z,99.90
2019-03-05T09:07:31.409Z,99.90
2019-03-05T09:10:01.741Z,99.90
2019-03-05T09:12:31.831Z,99.90
2019-03-05T09:15:02.081Z,99.90
2019-03-05T09:17:32.432Z,99.90
2019-03-05T09:20:03.112Z,99.90
2019-03-05T09:22:33.292Z,99.90
2019-03-05T09:25:04.158Z,99.90
2019-03-05T09:27:34.289Z,99.90
2019-03-05T09:30:05.249Z,99.90
2019-03-05T09:32:35.497Z,99.90
2019-03-05T09:35:06.408Z,99.90
2019-03-05T09:37:43.097Z,99.90
2019-03-05T09:40:18.600Z,99.90
2019-03-05T09:42:56.065Z,99.90
2019-03-05T09:45:32.135Z,99.90
2019-03-05T09:48:06.024Z,99.90
2019-03-05T09:50:41.425Z,99.90
2019-03-05T09:53:12.519Z,99.90
2019-03-05T09:55:49.834Z,99.90
2019-03-05T09:58:20.668Z,99.90
2019-03-05T10:00:51.033Z,99.90
2019-03-05T10:03:21.228Z,99.90
2019-03-05T10:05:52.403Z,99.90
2019-03-05T10:08:31.945Z,99.90
2019-03-05T10:10:54.552Z,99.90
2019-03-05T10:13:24.767Z,99.90
2019-03-05T10:15:55.358Z,99.90
2019-03-05T10:18:25.461Z,99.90
2019-03-05T10:20:55.688Z,99.90
2019-03-05T10:23:25.910Z,99.90
2019-03-05T10:25:57.101Z,99.90
2019-03-05T10:28:27.325Z,99.90
2019-03-05T10:30:57.373Z,99.90
2019-03-05T10:33:27.565Z,99.90
2019-03-05T10:35:58.356Z,99.90
2019-03-05T10:38:28.517Z,99.90
2019-03-05T10:40:59.122Z,99.90
2019-03-05T10:43:29.285Z,99.90
2019-03-05T10:45:59.697Z,99.90
2019-03-05T10:48:30.541Z,99.90
2019-03-05T10:51:01.111Z,99.90
2019-03-05T10:53:31.481Z,99.90
2019-03-05T10:56:01.603Z,99.90
2019-03-05T10:58:34.219Z,99.90
2019-03-05T11:01:05.629Z,99.90
2019-03-05T11:03:35.957Z,99.90
2019-03-05T11:06:07.022Z,99.90
2019-03-05T11:08:38.855Z,99.90
2019-03-05T11:11:13.434Z,99.90
2019-03-05T11:13:41.018Z,99.90
2019-03-05T11:16:11.572Z,99.00
2019-03-05T11:18:41.998Z,99.90
2019-03-05T11:21:12.268Z,98.60
2019-03-05T11:23:42.485Z,99.90
2019-03-05T11:26:12.593Z,99.70
2019-03-05T11:28:43.265Z,98.00
2019-03-05T11:31:14.113Z,97.40
2019-03-05T11:33:44.292Z,95.30
2019-03-05T11:36:14.673Z,92.30
2019-03-05T11:38:45.140Z,90.80
2019-03-05T11:41:15.413Z,91.60
2019-03-05T11:43:45.586Z,88.90
2019-03-05T11:46:18.336Z,84.20
2019-03-05T11:48:48.598Z,71.90
2019-03-05T11:51:18.739Z,73.80
2019-03-05T11:53:49.032Z,69.20
2019-03-05T11:56:19.409Z,61.60
2019-03-05T11:58:49.601Z,62.20
2019-03-05T12:01:27.329Z,59.40
2019-03-05T12:03:57.346Z,58.80
2019-03-05T12:06:27.956Z,60.90
2019-03-05T12:09:00.301Z,57.30
2019-03-05T12:11:30.658Z,56.90
2019-03-05T12:14:00.893Z,55.80
2019-03-05T12:16:31.442Z,53.20
2019-03-05T12:19:03.041Z,54.40
2019-03-05T12:21:35.374Z,54.90
2019-03-05T12:24:05.408Z,51.40
2019-03-05T12:26:35.725Z,50.00
2019-03-05T12:29:06.016Z,50.30
2019-03-05T12:31:36.445Z,50.30
2019-03-05T12:34:15.949Z,50.50
2019-03-05T12:36:46.069Z,48.40
2019-03-05T12:39:19.972Z,47.90
2019-03-05T12:41:53.611Z,48.40
2019-03-05T12:44:23.615Z,45.00
2019-03-05T12:46:53.716Z,42.50
2019-03-05T12:49:23.675Z,42.70
2019-03-05T12:51:53.839Z,44.50
2019-03-05T12:54:23.978Z,42.80
2019-03-05T12:56:53.870Z,40.10
2019-03-05T12:59:24.009Z,41.00
2019-03-05T13:01:54.458Z,39.40
2019-03-05T13:04:24.375Z,39.20
2019-03-05T13:06:54.554Z,37.50
2019-03-05T13:09:24.440Z,34.50
2019-03-05T13:11:55.696Z,33.10
2019-03-05T13:14:25.548Z,33.30
2019-03-05T13:16:55.764Z,33.50
2019-03-05T13:19:26.033Z,31.20
2019-03-05T13:21:55.885Z,31.50
2019-03-05T13:24:25.995Z,32.00
2019-03-05T13:26:56.232Z,29.90
2019-03-05T13:29:26.097Z,32.00
2019-03-05T13:31:55.951Z,32.90
2019-03-05T13:34:25.873Z,32.30
2019-03-05T13:36:55.699Z,31.60
2019-03-05T13:39:25.553Z,32.90
2019-03-05T13:41:55.660Z,32.00
2019-03-05T13:44:34.615Z,32.90
2019-03-05T13:47:06.471Z,31.60
2019-03-05T13:49:58.793Z,30.80
2019-03-05T13:52:57.011Z,31.50
2019-03-05T13:56:05.952Z,31.30
2019-03-05T13:59:18.984Z,31.70
2019-03-05T14:01:49.247Z,31.50
2019-03-05T14:04:25.665Z,29.60
2019-03-05T14:07:32.846Z,29.40
2019-03-05T14:10:03.074Z,30.50
2019-03-05T14:12:34.270Z,29.50
2019-03-05T14:15:04.652Z,30.10
2019-03-05T14:17:38.846Z,30.50
2019-03-05T14:20:12.122Z,29.40
2019-03-05T14:22:42.358Z,28.30
2019-03-05T14:25:13.706Z,29.70
2019-03-05T14:27:44.200Z,29.80
2019-03-05T14:30:17.112Z,30.90
2019-03-05T14:32:47.598Z,29.70
2019-03-05T14:35:19.853Z,28.10
2019-03-05T14:37:50.295Z,27.20
2019-03-05T14:40:25.114Z,29.50
2019-03-05T14:42:55.568Z,31.10
2019-03-05T14:45:27.908Z,30.00
2019-03-05T14:47:59.718Z,29.30
2019-03-05T14:50:30.084Z,30.20
2019-03-05T14:53:00.422Z,29.00
2019-03-05T14:55:30.683Z,28.50
2019-03-05T14:58:00.829Z,29.00
2019-03-05T15:00:31.031Z,28.00
2019-03-05T15:03:01.275Z,28.50
2019-03-05T15:05:31.498Z,27.20
2019-03-05T15:08:01.823Z,27.50
2019-03-05T15:10:32.036Z,26.70
2019-03-05T15:13:14.918Z,26.00
2019-03-05T15:15:35.134Z,26.50
2019-03-05T15:18:05.626Z,26.80
2019-03-05T15:20:35.848Z,27.00
2019-03-05T15:23:05.978Z,28.30
2019-03-05T15:25:36.167Z,26.80
2019-03-05T15:28:06.280Z,27.30
2019-03-05T15:30:36.472Z,28.70
2019-03-05T15:33:06.761Z,29.10
2019-03-05T15:35:36.944Z,29.00
2019-03-05T15:38:07.419Z,30.00
2019-03-05T15:40:37.759Z,28.60
2019-03-05T15:43:08.019Z,29.30
2019-03-05T15:45:38.283Z,29.10
2019-03-05T15:48:08.942Z,29.10
2019-03-05T15:50:39.155Z,28.60
2019-03-05T15:53:10.135Z,28.30
2019-03-05T15:55:40.583Z,28.50
2019-03-05T15:58:11.138Z,28.90
2019-03-05T16:00:43.169Z,27.00
2019-03-05T16:03:13.474Z,27.90
2019-03-05T16:05:44.147Z,26.90
2019-03-05T16:08:15.113Z,26.50
2019-03-05T16:10:46.320Z,27.90
2019-03-05T16:13:19.421Z,27.40
2019-03-05T16:15:48.543Z,27.20
2019-03-05T16:18:20.161Z,28.70
2019-03-05T16:20:50.930Z,27.30
2019-03-05T16:23:24.282Z,27.90
2019-03-05T16:25:54.992Z,28.50
2019-03-05T16:28:26.900Z,28.70
2019-03-05T16:31:23.138Z,28.50
2019-03-05T16:34:24.809Z,28.10
2019-03-05T16:37:11.925Z,26.60
2019-03-05T16:39:58.119Z,28.80
2019-03-05T16:42:42.016Z,28.30
2019-03-05T16:45:32.045Z,28.20
2019-03-05T16:48:30.323Z,27.80
2019-03-05T16:51:21.126Z,27.70
2019-03-05T16:54:09.169Z,29.20
2019-03-05T16:57:04.373Z,28.60
2019-03-05T16:59:53.267Z,29.90
2019-03-05T17:02:45.468Z,30.10
2019-03-05T17:05:39.036Z,31.80
2019-03-05T17:08:19.909Z,36.50
2019-03-05T17:11:15.216Z,38.20
2019-03-05T17:13:45.337Z,42.60
2019-03-05T17:16:15.578Z,46.20
2019-03-05T17:18:45.965Z,45.70
2019-03-05T17:21:17.046Z,48.60
2019-03-05T17:23:47.384Z,48.80
2019-03-05T17:26:17.669Z,49.40
2019-03-05T17:28:48.166Z,49.60
2019-03-05T17:31:18.277Z,50.10
2019-03-05T17:33:48.550Z,51.30
2019-03-05T17:36:19.304Z,54.90
2019-03-05T17:38:49.375Z,55.00
2019-03-05T17:41:19.539Z,56.00
2019-03-05T17:43:49.756Z,57.70
2019-03-05T17:46:19.956Z,58.00
2019-03-05T17:48:50.281Z,58.00
2019-03-05T17:51:20.513Z,55.20
2019-03-05T17:53:50.716Z,58.60
2019-03-05T17:56:20.967Z,60.30
2019-03-05T17:58:51.098Z,59.90
2019-03-05T18:01:22.183Z,60.00
2019-03-05T18:03:52.679Z,62.20
2019-03-05T18:06:23.174Z,66.10
2019-03-05T18:08:54.017Z,65.90
2019-03-05T18:11:25.688Z,66.70
2019-03-05T18:13:56.648Z,67.70
2019-03-05T18:16:27.265Z,69.80
2019-03-05T18:18:57.908Z,71.30
2019-03-05T18:21:29.945Z,75.50
2019-03-05T18:24:03.297Z,70.70
2019-03-05T18:26:34.711Z,69.30
2019-03-05T18:29:05.485Z,68.40
2019-03-05T18:31:39.001Z,67.70
2019-03-05T18:34:11.635Z,69.60
2019-03-05T18:36:42.810Z,71.20
2019-03-05T18:39:14.518Z,71.80
2019-03-05T18:41:45.640Z,73.40
2019-03-05T18:44:17.008Z,76.80
2019-03-05T18:46:47.978Z,79.10
2019-03-05T18:49:19.377Z,84.20
2019-03-05T18:51:50.811Z,82.00
2019-03-05T18:54:22.037Z,80.10
2019-03-05T18:56:53.592Z,82.80
2019-03-05T18:59:25.136Z,76.80
2019-03-05T19:01:57.095Z,73.90
2019-03-05T19:04:28.966Z,77.90
2019-03-05T19:07:00.963Z,76.30
2019-03-05T19:09:32.505Z,74.60
2019-03-05T19:12:04.068Z,73.20
2019-03-05T19:14:35.044Z,71.10
2019-03-05T19:17:09.405Z,75.60
2019-03-05T19:19:41.874Z,70.00
2019-03-05T19:22:13.446Z,77.40
2019-03-05T19:24:45.105Z,84.00
2019-03-05T19:27:25.677Z,84.70
2019-03-05T19:29:49.555Z,87.00
2019-03-05T19:32:21.027Z,90.20
2019-03-05T19:34:52.360Z,94.30
2019-03-05T19:37:23.536Z,98.10
2019-03-05T19:39:54.728Z,96.80
2019-03-05T19:42:26.132Z,97.90
2019-03-05T19:44:57.811Z,99.90
2019-03-05T19:47:29.253Z,99.90
2019-03-05T19:50:00.829Z,99.90
2019-03-05T19:52:35.886Z,99.90
2019-03-05T19:55:08.278Z,99.90
2019-03-05T19:57:39.959Z,96.70
2019-03-05T20:00:17.412Z,98.60
2019-03-05T20:02:49.210Z,94.10
2019-03-05T20:05:20.799Z,95.30
2019-03-05T20:07:56.294Z,95.00
2019-03-05T20:10:33.670Z,98.60
2019-03-05T20:13:07.248Z,98.90
2019-03-05T20:15:39.803Z,99.90
2019-03-05T20:18:11.514Z,99.90
2019-03-05T20:20:43.973Z,99.90
2019-03-05T20:23:15.794Z,99.90
2019-03-05T20:25:48.399Z,99.90
2019-03-05T20:28:20.190Z,99.90
2019-03-05T20:30:51.636Z,99.90
2019-03-05T20:33:23.163Z,99.90
2019-03-05T20:35:55.003Z,99.90
2019-03-05T20:38:26.441Z,99.90
2019-03-05T20:40:58.019Z,99.90
2019-03-05T20:43:29.453Z,99.90
2019-03-05T20:46:11.926Z,99.90
2019-03-05T20:48:43.601Z,99.90
2019-03-05T20:51:14.912Z,99.90
2019-03-05T20:53:46.407Z,98.50
2019-03-05T20:56:17.749Z,97.90
2019-03-05T20:58:48.833Z,99.90
2019-03-05T21:01:20.325Z,99.90
2019-03-05T21:03:51.523Z,99.90
2019-03-05T21:06:23.232Z,99.90
2019-03-05T21:08:54.021Z,99.90
2019-03-05T21:11:25.582Z,99.90
2019-03-05T21:13:56.523Z,99.90
2019-03-05T21:16:27.910Z,99.90
2019-03-05T21:18:59.243Z,99.90
2019-03-05T21:21:29.633Z,99.90
2019-03-05T21:24:00.497Z,99.90
2019-03-05T21:26:31.908Z,99.90
2019-03-05T21:29:02.238Z,99.90
2019-03-05T21:31:33.153Z,99.90
2019-03-05T21:34:03.333Z,99.90
2019-03-05T21:36:33.982Z,99.90
2019-03-05T21:39:05.709Z,99.90
2019-03-05T21:41:35.917Z,99.90
2019-03-05T21:44:06.114Z,99.90
2019-03-05T21:46:36.400Z,99.90
2019-03-05T21:49:06.565Z,99.90
2019-03-05T21:51:36.857Z,99.90
2019-03-05T21:54:07.151Z,99.90
2019-03-05T21:56:37.242Z,99.90
2019-03-05T21:59:07.453Z,99.90
2019-03-05T22:01:37.917Z,99.90
2019-03-05T22:04:08.195Z,99.90
2019-03-05T22:06:38.469Z,99.90
2019-03-05T22:09:08.755Z,99.90
2019-03-05T22:11:39.021Z,99.90
2019-03-05T22:14:09.291Z,99.90
2019-03-05T22:16:39.513Z,99.90
2019-03-05T22:19:09.710Z,99.90
2019-03-05T22:21:39.944Z,99.90
2019-03-05T22:24:10.413Z,99.90
2019-03-05T22:26:40.592Z,99.90
2019-03-05T22:29:11.685Z,99.90
2019-03-05T22:31:41.857Z,99.90
2019-03-05T22:34:12.014Z,99.90
2019-03-05T22:36:42.389Z,99.90
2019-03-05T22:39:12.613Z,99.90
2019-03-05T22:41:42.822Z,99.90
2019-03-05T22:44:13.079Z,99.90
2019-03-05T22:46:43.554Z,99.90
2019-03-05T22:49:13.749Z,99.90
2019-03-05T22:51:43.972Z,99.90
2019-03-05T22:54:14.141Z,99.90
2019-03-05T22:56:44.324Z,99.90
2019-03-05T22:59:14.561Z,99.90
2019-03-05T23:01:45.312Z,99.90
2019-03-05T23:04:19.083Z,99.90
2019-03-05T23:06:49.391Z,99.90
2019-03-05T23:09:23.991Z,99.90
2019-03-05T23:11:54.595Z,99.90
2019-03-05T23:14:25.410Z,99.90
2019-03-05T23:16:55.799Z,99.90
2019-03-05T23:19:26.440Z,99.90
2019-03-05T23:21:56.852Z,99.90
2019-03-05T23:24:27.144Z,99.90
2019-03-05T23:26:57.368Z,99.90
2019-03-05T23:29:47.886Z,99.90
2019-03-05T23:32:19.002Z,99.90
2019-03-05T23:34:49.431Z,99.90
2019-03-05T23:37:19.799Z,99.90
2019-03-05T23:39:50.208Z,99.90
2019-03-05T23:42:21.245Z,99.90
2019-03-05T23:44:51.472Z,99.90
2019-03-05T23:47:21.715Z,99.90
2019-03-05T23:49:52.188Z,99.90
2019-03-05T23:52:22.391Z,99.90
2019-03-05T23:54:52.639Z,99.90
2019-03-05T23:57:22.834Z,99.90
2019-03-05T23:59:53.087Z,99.90
